Time;durP1;ratioP1;P1;durP2;ratioP2;P2;SDS_P1;SDS_P2;PMS_P1;PMS_P2;Temp;Humidity;BMP_temperature;BMP_pressure;BME280_temperature;BME280_humidity;BME280_pressure;Samples;Min_cycle;Max_cycle;Signal;HPM_P1;HPM_P2
2022/01/21 00:00:19;;;;;;;42.13;4.88;;;;;;;;;;4999972;28;20129;-66
2022/01/21 00:02:46;;;;;;;32.97;3.70;;;;;;;;;;4984120;28;20049;-68
2022/01/21 00:05:12;;;;;;;24.17;4.45;;;;;;;;;;4983569;28;20046;-67
2022/01/21 00:07:38;;;;;;;25.67;3.80;;;;;;;;;;4980518;28;20034;-66
2022/01/21 00:10:05;;;;;;;29.08;3.17;;;;;;;;;;4981114;28;20023;-66
2022/01/21 00:12:33;;;;;;;30.50;4.47;;;;;;;;;;4982155;28;20073;-68
2022/01/21 00:14:59;;;;;;;35.70;4.53;;;;;;;;;;4988279;28;20030;-66
2022/01/21 00:17:25;;;;;;;30.75;3.95;;;;;;;;;;4984786;28;20034;-67
2022/01/21 00:19:52;;;;;;;29.40;3.97;;;;;;;;;;4976585;28;20121;-67
2022/01/21 00:30:33;;;;;;;20.63;3.10;;;;;;;;;;4982079;28;20573;-67
2022/01/21 00:32:59;;;;;;;19.13;3.75;;;;;;;;;;4982684;28;20042;-68
2022/01/21 00:35:26;;;;;;;25.90;4.55;;;;;;;;;;4986859;28;20152;-66
2022/01/21 00:37:52;;;;;;;20.02;3.45;;;;;;;;;;4978784;28;20035;-67
2022/01/21 00:40:22;;;;;;;27.98;4.05;;;;;;;;;;4998865;28;20034;-67
2022/01/21 00:45:16;;;;;;;28.27;4.38;;;;;;;;;;4984685;28;20054;-67
2022/01/21 00:47:43;;;;;;;27.83;3.03;;;;;;;;;;4977630;28;20106;-67
2022/01/21 00:50:09;;;;;;;32.85;5.70;;;;;;;;;;4979737;28;20077;-66
2022/01/21 00:52:35;;;;;;;19.17;3.72;;;;;;;;;;4982751;28;20050;-66
2022/01/21 00:55:02;;;;;;;25.17;6.78;;;;;;;;;;4976528;28;20121;-67
2022/01/21 00:57:27;;;;;;;31.92;4.03;;;;;;;;;;4976075;28;20098;-66
2022/01/21 00:59:53;;;;;;;37.35;4.93;;;;;;;;;;4986909;28;20026;-67
2022/01/21 01:02:19;;;;;;;24.90;2.80;;;;;;;;;;4974995;28;20152;-67
2022/01/21 01:04:46;;;;;;;31.80;4.72;;;;;;;;;;4973874;28;20045;-68
2022/01/21 01:07:12;;;;;;;18.17;3.20;;;;;;;;;;4981097;28;20423;-67
2022/01/21 01:09:38;;;;;;;30.35;3.58;;;;;;;;;;4982345;28;20032;-67
2022/01/21 01:12:24;;;;;;;24.33;3.53;;;;;;;;;;4979078;28;20049;-67
2022/01/21 01:20:20;;;;;;;26.00;3.30;;;;;;;;;;4979238;28;20053;-67
2022/01/21 01:22:53;;;;;;;20.30;3.33;;;;;;;;;;4976147;28;20031;-67
2022/01/21 01:28:16;;;;;;;25.27;3.38;;;;;;;;;;4981082;28;20045;-66
2022/01/21 01:30:42;;;;;;;21.50;3.50;;;;;;;;;;4984012;28;20050;-69
2022/01/21 01:33:10;;;;;;;24.45;2.83;;;;;;;;;;4979471;28;20065;-67
2022/01/21 01:35:38;;;;;;;21.75;3.00;;;;;;;;;;4982110;28;20039;-67
2022/01/21 01:50:58;;;;;;;24.15;2.70;;;;;;;;;;4984233;28;20552;-67
2022/01/21 01:53:26;;;;;;;20.45;2.05;;;;;;;;;;4984853;28;20042;-67
2022/01/21 01:55:52;;;;;;;18.35;2.90;;;;;;;;;;4975198;28;20069;-68
2022/01/21 01:58:18;;;;;;;31.40;3.60;;;;;;;;;;4978768;28;20026;-67
2022/01/21 02:00:44;;;;;;;24.63;2.88;;;;;;;;;;4981818;28;20033;-67
2022/01/21 02:03:14;;;;;;;22.98;2.65;;;;;;;;;;4985174;28;20034;-66
2022/01/21 02:05:41;;;;;;;27.05;3.35;;;;;;;;;;4985851;28;20030;-67
2022/01/21 02:08:10;;;;;;;27.38;3.30;;;;;;;;;;4979869;28;20042;-67
2022/01/21 02:10:36;;;;;;;30.02;3.85;;;;;;;;;;4980563;28;20042;-67
2022/01/21 02:13:17;;;;;;;26.05;2.75;;;;;;;;;;4983968;28;20050;-67
2022/01/21 02:15:44;;;;;;;30.73;4.05;;;;;;;;;;4981075;28;20023;-68
2022/01/21 02:23:39;;;;;;;17.77;2.67;;;;;;;;;;4981625;28;20510;-67
2022/01/21 02:26:05;;;;;;;34.63;3.20;;;;;;;;;;4978594;28;20122;-67
2022/01/21 02:28:32;;;;;;;26.27;3.50;;;;;;;;;;4981772;28;20093;-67
2022/01/21 02:30:58;;;;;;;23.67;3.45;;;;;;;;;;4977448;28;20069;-67
2022/01/21 02:33:25;;;;;;;22.05;3.00;;;;;;;;;;4981631;28;20027;-68
2022/01/21 02:35:51;;;;;;;21.95;2.75;;;;;;;;;;4981105;28;20037;-66
2022/01/21 02:38:18;;;;;;;21.35;3.55;;;;;;;;;;4982371;28;20026;-66
2022/01/21 02:40:44;;;;;;;22.10;2.92;;;;;;;;;;4985871;28;20054;-66
2022/01/21 02:43:11;;;;;;;18.48;2.75;;;;;;;;;;4989732;28;20505;-66
2022/01/21 02:45:39;;;;;;;17.55;3.80;;;;;;;;;;4989226;28;20052;-68
2022/01/21 02:48:07;;;;;;;17.60;3.42;;;;;;;;;;4983207;28;20504;-67
2022/01/21 02:50:33;;;;;;;23.70;3.30;;;;;;;;;;4973135;28;20038;-66
2022/01/21 02:53:13;;;;;;;22.08;2.72;;;;;;;;;;5017315;28;20043;-66
2022/01/21 02:55:40;;;;;;;15.52;2.10;;;;;;;;;;4985215;28;20030;-68
2022/01/21 02:58:06;;;;;;;26.60;4.30;;;;;;;;;;4986910;28;20492;-67
2022/01/21 03:00:32;;;;;;;23.70;3.53;;;;;;;;;;4985961;28;20513;-67
2022/01/21 03:02:58;;;;;;;21.52;2.92;;;;;;;;;;4976482;28;20109;-67
2022/01/21 03:05:24;;;;;;;18.83;3.92;;;;;;;;;;4979443;28;20038;-67
2022/01/21 03:07:50;;;;;;;21.90;3.42;;;;;;;;;;4985489;28;20041;-67
2022/01/21 03:10:16;;;;;;;20.58;3.15;;;;;;;;;;4986944;28;20023;-67
2022/01/21 03:12:42;;;;;;;19.08;2.80;;;;;;;;;;4978991;28;20615;-67
2022/01/21 03:15:09;;;;;;;16.52;2.25;;;;;;;;;;4994818;28;20026;-66
2022/01/21 03:17:35;;;;;;;21.80;4.10;;;;;;;;;;4974007;28;20407;-67
2022/01/21 03:20:01;;;;;;;13.02;2.65;;;;;;;;;;4984864;28;20046;-66
2022/01/21 03:22:27;;;;;;;21.73;2.38;;;;;;;;;;4987689;28;20035;-66
2022/01/21 03:24:54;;;;;;;28.17;3.67;;;;;;;;;;4986275;28;20495;-67
2022/01/21 03:27:20;;;;;;;24.15;3.00;;;;;;;;;;4980721;28;20031;-68
2022/01/21 03:29:47;;;;;;;22.73;3.60;;;;;;;;;;4977094;28;20031;-67
2022/01/21 03:32:13;;;;;;;25.17;3.97;;;;;;;;;;4979606;28;20037;-67
2022/01/21 03:34:39;;;;;;;21.50;2.88;;;;;;;;;;4984741;28;20035;-67
2022/01/21 03:37:05;;;;;;;21.90;2.60;;;;;;;;;;4974615;28;20138;-66
2022/01/21 03:39:31;;;;;;;21.73;3.20;;;;;;;;;;4979892;28;20061;-66
2022/01/21 03:41:57;;;;;;;20.92;3.60;;;;;;;;;;4984213;28;20122;-66
2022/01/21 03:44:23;;;;;;;33.42;3.45;;;;;;;;;;4982508;28;20034;-68
2022/01/21 03:46:49;;;;;;;30.92;4.07;;;;;;;;;;4988729;28;20034;-67
2022/01/21 03:49:16;;;;;;;12.20;2.05;;;;;;;;;;4986053;28;20030;-67
2022/01/21 03:51:42;;;;;;;21.58;2.67;;;;;;;;;;4986766;28;20019;-67
2022/01/21 03:54:08;;;;;;;15.02;2.47;;;;;;;;;;4985021;28;20113;-67
2022/01/21 03:56:36;;;;;;;15.13;2.40;;;;;;;;;;4983335;28;20039;-66
2022/01/21 03:59:03;;;;;;;24.35;3.60;;;;;;;;;;4985630;28;20451;-67
2022/01/21 04:01:29;;;;;;;20.13;2.75;;;;;;;;;;4985265;28;20514;-66
2022/01/21 04:03:55;;;;;;;17.63;2.33;;;;;;;;;;4977451;28;20035;-66
2022/01/21 04:06:21;;;;;;;21.02;3.63;;;;;;;;;;4989461;28;20030;-66
2022/01/21 04:08:47;;;;;;;22.52;2.90;;;;;;;;;;4974823;28;20041;-68
2022/01/21 04:11:13;;;;;;;18.88;2.50;;;;;;;;;;4977415;28;20121;-67
2022/01/21 04:13:39;;;;;;;18.63;2.50;;;;;;;;;;4979625;28;20037;-67
2022/01/21 04:16:05;;;;;;;18.00;2.55;;;;;;;;;;4985941;28;20459;-67
2022/01/21 04:18:33;;;;;;;21.52;3.20;;;;;;;;;;4979582;28;20551;-67
2022/01/21 04:20:59;;;;;;;23.20;2.53;;;;;;;;;;4982549;28;20100;-68
2022/01/21 04:23:25;;;;;;;18.20;2.85;;;;;;;;;;4974718;28;20118;-68
2022/01/21 04:25:52;;;;;;;23.88;3.17;;;;;;;;;;4991268;28;20018;-67
2022/01/21 04:28:18;;;;;;;17.27;2.55;;;;;;;;;;4986319;28;20045;-67
2022/01/21 04:30:44;;;;;;;13.07;2.65;;;;;;;;;;4984021;28;20030;-67
2022/01/21 04:33:10;;;;;;;17.85;1.80;;;;;;;;;;4979486;28;20176;-67
2022/01/21 04:35:37;;;;;;;15.48;2.85;;;;;;;;;;4987351;28;20065;-68
2022/01/21 04:38:06;;;;;;;15.40;2.33;;;;;;;;;;4971199;28;20127;-66
2022/01/21 04:40:37;;;;;;;32.33;3.38;;;;;;;;;;4990598;28;20026;-67
2022/01/21 04:48:35;;;;;;;12.30;2.58;;;;;;;;;;4976610;28;20045;-67
2022/01/21 04:51:14;;;;;;;25.30;2.83;;;;;;;;;;4982192;28;20230;-66
2022/01/21 04:53:41;;;;;;;15.38;2.78;;;;;;;;;;4972422;28;20113;-68
2022/01/21 04:56:07;;;;;;;56.03;5.15;;;;;;;;;;4980952;28;20046;-66
2022/01/21 04:58:33;;;;;;;16.75;2.38;;;;;;;;;;4971692;28;20047;-66
2022/01/21 05:01:03;;;;;;;23.27;3.53;;;;;;;;;;4976501;28;20031;-66
2022/01/21 05:03:30;;;;;;;24.25;3.33;;;;;;;;;;4976446;28;20026;-67
2022/01/21 05:05:56;;;;;;;19.42;2.85;;;;;;;;;;4991212;28;20496;-67
2022/01/21 05:08:27;;;;;;;23.92;3.58;;;;;;;;;;4998843;28;20162;-67
2022/01/21 05:10:53;;;;;;;23.90;3.47;;;;;;;;;;4975489;28;20038;-67
2022/01/21 05:13:24;;;;;;;24.13;4.13;;;;;;;;;;4973001;28;20118;-67
2022/01/21 05:16:06;;;;;;;32.83;5.03;;;;;;;;;;4973974;28;20062;-67
2022/01/21 05:18:33;;;;;;;33.30;5.05;;;;;;;;;;4999110;28;20029;-66
2022/01/21 05:20:59;;;;;;;26.05;4.63;;;;;;;;;;4975918;28;20022;-67
2022/01/21 05:23:25;;;;;;;16.52;4.70;;;;;;;;;;4974249;28;20544;-66
2022/01/21 05:25:52;;;;;;;23.65;4.40;;;;;;;;;;4984250;28;20173;-67
2022/01/21 05:28:18;;;;;;;34.40;7.25;;;;;;;;;;4978598;28;20792;-67
2022/01/21 05:30:44;;;;;;;34.80;5.60;;;;;;;;;;4974569;28;20027;-66
2022/01/21 05:33:10;;;;;;;26.35;4.88;;;;;;;;;;4995095;28;20169;-68
2022/01/21 05:35:36;;;;;;;28.13;5.90;;;;;;;;;;4982614;28;20633;-67
2022/01/21 05:38:02;;;;;;;22.35;5.80;;;;;;;;;;4984250;28;20508;-66
2022/01/21 05:40:28;;;;;;;28.13;6.53;;;;;;;;;;4981279;28;20040;-67
2022/01/21 05:42:54;;;;;;;30.23;7.82;;;;;;;;;;4978554;28;20031;-67
2022/01/21 05:48:05;;;;;;;29.38;8.98;;;;;;;;;;4976216;28;20305;-67
2022/01/21 05:50:31;;;;;;;30.75;8.38;;;;;;;;;;4993294;28;20034;-67
2022/01/21 05:52:57;;;;;;;28.05;8.05;;;;;;;;;;4977682;28;20046;-67
2022/01/21 05:55:23;;;;;;;28.92;8.23;;;;;;;;;;4976997;28;20037;-67
2022/01/21 05:57:49;;;;;;;31.63;8.40;;;;;;;;;;4982216;28;20038;-66
2022/01/21 06:00:15;;;;;;;23.00;7.75;;;;;;;;;;4982629;28;20415;-67
2022/01/21 06:02:41;;;;;;;32.47;9.75;;;;;;;;;;4981925;28;20023;-67
2022/01/21 06:05:09;;;;;;;28.52;8.88;;;;;;;;;;4981212;28;20133;-69
2022/01/21 06:07:35;;;;;;;28.75;8.82;;;;;;;;;;4979710;28;20214;-67
2022/01/21 06:10:01;;;;;;;30.63;9.13;;;;;;;;;;4978535;28;20114;-68
2022/01/21 06:12:27;;;;;;;26.48;9.43;;;;;;;;;;4984346;28;20037;-68
2022/01/21 06:14:53;;;;;;;31.27;9.55;;;;;;;;;;4983142;28;20030;-67
2022/01/21 06:17:19;;;;;;;28.48;8.88;;;;;;;;;;4981628;28;20041;-68
2022/01/21 06:19:45;;;;;;;34.58;9.73;;;;;;;;;;4993234;28;20031;-67
2022/01/21 06:22:12;;;;;;;28.65;9.88;;;;;;;;;;4991769;28;20049;-67
2022/01/21 06:24:39;;;;;;;31.33;10.25;;;;;;;;;;4981085;28;20447;-68
2022/01/21 06:27:05;;;;;;;28.08;10.90;;;;;;;;;;4981734;28;20105;-67
2022/01/21 06:29:31;;;;;;;29.42;10.75;;;;;;;;;;4984854;28;20054;-67
2022/01/21 06:31:57;;;;;;;37.40;11.85;;;;;;;;;;4982255;28;20070;-67
2022/01/21 06:34:23;;;;;;;41.05;12.40;;;;;;;;;;4974869;28;20418;-67
2022/01/21 06:36:49;;;;;;;45.10;12.98;;;;;;;;;;4980482;28;20022;-67
2022/01/21 06:39:16;;;;;;;36.72;13.32;;;;;;;;;;4975860;28;20027;-67
2022/01/21 06:41:44;;;;;;;36.08;13.63;;;;;;;;;;4981303;28;20041;-67
2022/01/21 06:44:10;;;;;;;37.83;14.55;;;;;;;;;;4980396;28;20510;-67
2022/01/21 06:46:36;;;;;;;38.03;14.98;;;;;;;;;;4978259;28;20030;-67
2022/01/21 06:49:02;;;;;;;46.55;13.55;;;;;;;;;;4981356;28;20074;-68
2022/01/21 06:51:28;;;;;;;42.15;13.82;;;;;;;;;;4985417;28;20030;-66
2022/01/21 06:53:55;;;;;;;33.55;11.50;;;;;;;;;;4980041;28;20495;-67
2022/01/21 06:56:21;;;;;;;38.63;11.80;;;;;;;;;;4978135;28;20032;-68
2022/01/21 06:58:47;;;;;;;32.58;12.30;;;;;;;;;;4978757;28;20106;-68
2022/01/21 07:01:13;;;;;;;38.45;11.52;;;;;;;;;;4976477;28;20121;-67
2022/01/21 07:03:39;;;;;;;35.50;11.05;;;;;;;;;;4981654;28;20564;-68
2022/01/21 07:06:05;;;;;;;26.10;9.98;;;;;;;;;;4983039;28;20028;-67
2022/01/21 07:08:34;;;;;;;31.88;10.40;;;;;;;;;;4983187;28;20121;-68
2022/01/21 07:11:00;;;;;;;30.55;9.50;;;;;;;;;;4973037;28;20053;-67
2022/01/21 07:13:26;;;;;;;31.17;9.30;;;;;;;;;;4987104;28;20034;-66
2022/01/21 07:15:52;;;;;;;28.25;10.63;;;;;;;;;;4989224;28;20092;-67
2022/01/21 07:18:18;;;;;;;31.63;9.48;;;;;;;;;;4991165;28;20464;-67
2022/01/21 07:20:44;;;;;;;29.05;9.98;;;;;;;;;;4990106;28;20035;-68
2022/01/21 07:23:10;;;;;;;28.77;9.50;;;;;;;;;;4983794;28;20034;-68
2022/01/21 07:25:37;;;;;;;39.67;10.32;;;;;;;;;;4977002;28;20237;-67
2022/01/21 07:28:04;;;;;;;27.08;8.85;;;;;;;;;;4988634;28;20126;-68
2022/01/21 07:30:30;;;;;;;28.90;9.35;;;;;;;;;;4992409;28;20412;-66
2022/01/21 07:32:56;;;;;;;23.20;8.60;;;;;;;;;;4989276;28;20092;-66
2022/01/21 07:35:23;;;;;;;31.80;8.95;;;;;;;;;;4989115;28;20038;-66
2022/01/21 07:37:49;;;;;;;36.20;9.95;;;;;;;;;;4976533;28;20098;-67
2022/01/21 07:40:15;;;;;;;26.13;8.45;;;;;;;;;;4983776;28;20071;-68
2022/01/21 07:42:41;;;;;;;31.08;9.48;;;;;;;;;;4986942;28;20088;-67
2022/01/21 07:45:07;;;;;;;31.60;8.07;;;;;;;;;;5003652;28;20038;-67
2022/01/21 07:47:33;;;;;;;34.08;9.57;;;;;;;;;;4983636;28;20442;-67
2022/01/21 07:49:59;;;;;;;24.80;8.23;;;;;;;;;;4989849;28;20038;-67
2022/01/21 07:52:25;;;;;;;27.95;8.77;;;;;;;;;;4981251;28;20066;-67
2022/01/21 07:54:51;;;;;;;35.20;7.82;;;;;;;;;;5002156;28;20064;-67
2022/01/21 07:57:18;;;;;;;25.80;7.93;;;;;;;;;;5011891;28;20112;-67
2022/01/21 07:59:44;;;;;;;20.33;7.07;;;;;;;;;;4985616;28;20115;-67
2022/01/21 08:02:10;;;;;;;40.30;9.73;;;;;;;;;;4985661;28;20041;-66
2022/01/21 08:04:36;;;;;;;32.78;7.97;;;;;;;;;;4992286;28;20030;-67
2022/01/21 08:07:03;;;;;;;29.63;8.38;;;;;;;;;;5004210;28;20048;-66
2022/01/21 08:09:29;;;;;;;34.03;8.15;;;;;;;;;;4971188;28;20038;-68
2022/01/21 08:11:55;;;;;;;34.90;7.13;;;;;;;;;;4986835;28;20142;-68
2022/01/21 08:14:23;;;;;;;42.03;7.65;;;;;;;;;;4986792;28;20487;-68
2022/01/21 08:16:51;;;;;;;23.98;7.50;;;;;;;;;;5005675;28;20030;-67
2022/01/21 08:19:17;;;;;;;40.00;8.05;;;;;;;;;;4975438;28;20098;-67
2022/01/21 08:21:43;;;;;;;27.52;8.50;;;;;;;;;;4987065;28;20388;-66
2022/01/21 08:24:09;;;;;;;34.97;10.35;;;;;;;;;;4983105;28;20116;-67
2022/01/21 08:26:36;;;;;;;35.50;8.63;;;;;;;;;;4991115;28;20042;-67
2022/01/21 08:29:03;;;;;;;32.42;10.40;;;;;;;;;;4989992;28;20088;-67
2022/01/21 08:31:29;;;;;;;30.23;9.07;;;;;;;;;;4990946;28;20034;-67
2022/01/21 08:33:55;;;;;;;36.75;8.55;;;;;;;;;;5007793;28;20091;-67
2022/01/21 08:36:22;;;;;;;25.30;6.80;;;;;;;;;;5010080;28;20479;-66
2022/01/21 08:38:48;;;;;;;31.67;8.02;;;;;;;;;;5010527;28;20030;-69
2022/01/21 08:41:14;;;;;;;30.08;7.20;;;;;;;;;;5000171;28;20460;-69
2022/01/21 08:43:40;;;;;;;30.58;6.95;;;;;;;;;;4985980;28;20176;-68
2022/01/21 08:46:06;;;;;;;33.22;6.75;;;;;;;;;;4987234;28;20034;-68
2022/01/21 08:48:34;;;;;;;22.52;4.85;;;;;;;;;;4980531;28;20071;-69
2022/01/21 08:51:03;;;;;;;30.15;5.50;;;;;;;;;;4983205;28;20531;-69
2022/01/21 08:53:41;;;;;;;21.23;5.05;;;;;;;;;;4988344;28;20129;-69
2022/01/21 08:56:12;;;;;;;24.55;4.93;;;;;;;;;;4988214;28;20133;-69
2022/01/21 08:58:38;;;;;;;;;;;;;;;;;;4992468;28;20038;-68
2022/01/21 09:01:05;;;;;;;28.80;6.00;;;;;;;;;;4979184;28;20375;-69
2022/01/21 09:03:31;;;;;;;22.48;4.45;;;;;;;;;;4981068;28;20106;-69
2022/01/21 09:05:57;;;;;;;26.52;4.25;;;;;;;;;;4976843;28;20549;-70
2022/01/21 09:08:25;;;;;;;25.15;3.55;;;;;;;;;;4974430;28;20481;-69
2022/01/21 09:10:51;;;;;;;26.48;5.53;;;;;;;;;;4988018;28;20038;-69
2022/01/21 09:13:18;;;;;;;24.27;4.68;;;;;;;;;;4978727;28;20037;-69
2022/01/21 09:15:47;;;;;;;31.35;3.70;;;;;;;;;;4978551;28;20062;-69
2022/01/21 09:18:18;;;;;;;23.10;4.88;;;;;;;;;;4981120;28;20453;-69
2022/01/21 09:20:44;;;;;;;21.40;3.90;;;;;;;;;;4975168;28;20424;-69
2022/01/21 09:23:10;;;;;;;21.80;3.83;;;;;;;;;;4985354;28;20496;-69
2022/01/21 09:25:36;;;;;;;21.95;5.20;;;;;;;;;;4985576;28;20094;-69
2022/01/21 09:28:02;;;;;;;22.90;3.50;;;;;;;;;;4993686;28;20085;-71
2022/01/21 09:30:30;;;;;;;23.30;4.97;;;;;;;;;;4945710;28;20058;-70
2022/01/21 09:32:59;;;;;;;17.45;3.53;;;;;;;;;;4969334;28;20034;-70
2022/01/21 09:35:25;;;;;;;16.73;3.35;;;;;;;;;;4973907;28;20038;-70
2022/01/21 09:37:51;;;;;;;15.88;3.58;;;;;;;;;;4986012;28;20076;-70
2022/01/21 09:40:18;;;;;;;24.02;3.72;;;;;;;;;;4986560;28;20042;-69
2022/01/21 09:42:45;;;;;;;23.48;3.80;;;;;;;;;;4984769;28;20077;-70
2022/01/21 09:45:13;;;;;;;24.95;3.55;;;;;;;;;;4983842;28;20039;-68
2022/01/21 09:47:51;;;;;;;18.92;3.80;;;;;;;;;;4985864;28;20026;-69
2022/01/21 09:50:18;;;;;;;27.08;4.60;;;;;;;;;;4986532;28;20097;-70
2022/01/21 09:52:48;;;;;;;26.27;3.75;;;;;;;;;;4983145;28;20038;-69
2022/01/21 09:55:14;;;;;;;24.70;3.60;;;;;;;;;;4986653;28;20041;-69
2022/01/21 09:57:41;;;;;;;57.40;5.45;;;;;;;;;;4988693;28;20293;-68
2022/01/21 10:00:08;;;;;;;45.50;7.25;;;;;;;;;;4978644;28;20046;-68
2022/01/21 10:02:35;;;;;;;29.08;3.53;;;;;;;;;;5000057;28;20467;-69
2022/01/21 10:05:02;;;;;;;30.38;5.20;;;;;;;;;;4980109;28;20418;-69
2022/01/21 10:07:29;;;;;;;23.13;3.53;;;;;;;;;;4976923;28;20120;-69
2022/01/21 10:09:55;;;;;;;32.08;6.35;;;;;;;;;;4973635;28;20054;-69
2022/01/21 10:12:23;;;;;;;27.52;5.35;;;;;;;;;;4980859;28;20402;-69
2022/01/21 10:14:49;;;;;;;23.58;4.03;;;;;;;;;;4980069;28;20038;-68
2022/01/21 10:17:15;;;;;;;25.63;3.80;;;;;;;;;;4981461;28;20069;-69
2022/01/21 10:19:43;;;;;;;24.75;5.03;;;;;;;;;;4988889;28;20023;-68
2022/01/21 10:22:18;;;;;;;24.20;4.10;;;;;;;;;;4984328;28;20230;-68
2022/01/21 10:24:52;;;;;;;21.48;3.30;;;;;;;;;;4977118;28;20026;-68
2022/01/21 10:27:50;;;;;;;22.48;3.47;;;;;;;;;;4982288;28;20027;-68
2022/01/21 10:30:19;;;;;;;14.25;2.97;;;;;;;;;;4961517;28;20039;-68
2022/01/21 10:32:45;;;;;;;24.90;4.32;;;;;;;;;;4981198;28;20027;-68
2022/01/21 10:35:23;;;;;;;25.92;3.40;;;;;;;;;;4978719;28;20130;-69
2022/01/21 10:37:50;;;;;;;23.38;3.88;;;;;;;;;;4973665;28;20027;-70
2022/01/21 10:40:17;;;;;;;21.85;4.03;;;;;;;;;;4977787;28;20162;-68
2022/01/21 10:42:45;;;;;;;22.77;3.28;;;;;;;;;;4980219;28;20030;-68
2022/01/21 10:45:11;;;;;;;24.42;3.30;;;;;;;;;;4973187;28;20035;-69
2022/01/21 10:47:46;;;;;;;25.45;3.97;;;;;;;;;;4980676;28;20023;-68
2022/01/21 10:50:15;;;;;;;16.17;3.13;;;;;;;;;;4994731;28;20043;-69
2022/01/21 10:52:51;;;;;;;19.85;3.70;;;;;;;;;;4983829;28;20038;-69
2022/01/21 10:55:29;;;;;;;22.15;3.35;;;;;;;;;;4983266;28;20038;-69
2022/01/21 10:58:09;;;;;;;22.40;3.75;;;;;;;;;;4988820;28;20399;-69
2022/01/21 11:00:38;;;;;;;15.82;2.58;;;;;;;;;;4979769;28;20042;-68
2022/01/21 11:03:15;;;;;;;21.42;4.43;;;;;;;;;;4980173;28;20035;-69
2022/01/21 11:05:46;;;;;;;18.83;3.08;;;;;;;;;;4985065;28;20034;-69
2022/01/21 11:08:14;;;;;;;25.02;4.03;;;;;;;;;;4985315;28;20065;-69
2022/01/21 11:10:46;;;;;;;24.77;2.95;;;;;;;;;;4983207;28;20049;-70
2022/01/21 11:13:20;;;;;;;15.07;2.92;;;;;;;;;;4983795;28;20514;-68
2022/01/21 11:15:48;;;;;;;25.70;3.45;;;;;;;;;;4990932;28;20097;-69
2022/01/21 11:18:17;;;;;;;15.18;2.97;;;;;;;;;;4992964;28;20030;-69
2022/01/21 11:20:45;;;;;;;20.98;3.17;;;;;;;;;;4984436;28;20089;-69
2022/01/21 11:23:11;;;;;;;18.27;2.97;;;;;;;;;;4991770;28;20038;-68
2022/01/21 11:25:43;;;;;;;17.90;2.72;;;;;;;;;;4991055;28;20035;-69
2022/01/21 11:28:10;;;;;;;22.50;3.60;;;;;;;;;;4984157;28;20230;-70
2022/01/21 11:30:36;;;;;;;16.00;1.98;;;;;;;;;;4996997;28;20058;-69
2022/01/21 11:33:02;;;;;;;20.55;3.92;;;;;;;;;;5012351;28;20037;-68
2022/01/21 11:35:28;;;;;;;16.73;2.72;;;;;;;;;;4992606;28;20039;-69
2022/01/21 11:37:55;;;;;;;22.42;3.10;;;;;;;;;;4991209;28;20081;-69
2022/01/21 11:40:21;;;;;;;21.65;3.22;;;;;;;;;;4986930;28;20034;-69
2022/01/21 11:42:50;;;;;;;17.08;2.58;;;;;;;;;;5012381;28;20054;-69
2022/01/21 11:45:32;;;;;;;13.65;2.75;;;;;;;;;;4988141;28;20031;-68
2022/01/21 11:48:49;;;;;;;25.95;4.85;;;;;;;;;;4979148;28;20054;-68
2022/01/21 11:50:47;;;;;;;27.88;3.65;;;;;;;;;;4982070;28;20495;-69
2022/01/21 11:53:13;;;;;;;24.35;3.60;;;;;;;;;;4972653;28;20071;-70
2022/01/21 11:55:41;;;;;;;15.23;2.67;;;;;;;;;;5011474;28;20039;-69
2022/01/21 11:58:11;;;;;;;23.17;3.05;;;;;;;;;;4992000;28;20026;-67
2022/01/21 12:00:39;;;;;;;19.27;3.00;;;;;;;;;;4995687;28;20374;-69
2022/01/21 12:03:06;;;;;;;20.90;3.35;;;;;;;;;;4991307;28;20293;-69
2022/01/21 12:05:33;;;;;;;17.05;2.80;;;;;;;;;;4989156;28;20030;-68
2022/01/21 12:08:04;;;;;;;19.65;2.97;;;;;;;;;;4990408;28;20060;-67
2022/01/21 12:10:40;;;;;;;23.73;3.10;;;;;;;;;;4988596;28;20034;-69
2022/01/21 12:13:07;;;;;;;19.10;3.53;;;;;;;;;;4993315;28;20109;-69
2022/01/21 12:20:55;;;;;;;20.55;3.25;;;;;;;;;;4994871;28;20034;-68
2022/01/21 12:23:22;;;;;;;18.02;2.80;;;;;;;;;;4995819;28;20504;-68
2022/01/21 12:26:07;;;;;;;26.30;3.00;;;;;;;;;;4972941;28;20038;-68
2022/01/21 12:28:33;;;;;;;24.45;3.60;;;;;;;;;;4984479;28;20057;-68
2022/01/21 12:30:59;;;;;;;19.13;3.55;;;;;;;;;;4994468;28;20410;-68
2022/01/21 12:33:49;;;;;;;21.33;4.30;;;;;;;;;;4994276;28;20027;-68
2022/01/21 12:36:15;;;;;;;17.23;2.47;;;;;;;;;;4972574;28;20583;-68
2022/01/21 12:41:16;;;;;;;21.67;3.17;;;;;;;;;;4996683;28;20448;-68
2022/01/21 12:43:56;;;;;;;17.83;2.70;;;;;;;;;;5009559;28;20029;-68
2022/01/21 12:46:28;;;;;;;24.80;3.58;;;;;;;;;;4984744;28;20027;-68
2022/01/21 12:48:55;;;;;;;33.75;4.50;;;;;;;;;;4982752;28;20034;-68
2022/01/21 12:56:41;;;;;;;30.20;4.00;;;;;;;;;;4982753;28;20048;-68
2022/01/21 12:59:07;;;;;;;20.17;3.13;;;;;;;;;;4983807;28;20049;-69
2022/01/21 13:01:37;;;;;;;21.63;3.10;;;;;;;;;;4990061;28;20022;-69
2022/01/21 13:04:07;;;;;;;15.32;4.30;;;;;;;;;;4987461;28;20069;-69
2022/01/21 13:06:36;;;;;;;18.08;3.35;;;;;;;;;;4990494;28;20103;-68
2022/01/21 13:09:07;;;;;;;23.90;3.08;;;;;;;;;;4999305;28;20033;-68
2022/01/21 13:11:35;;;;;;;19.42;3.20;;;;;;;;;;5010545;28;20030;-69
2022/01/21 13:14:45;;;;;;;18.27;3.05;;;;;;;;;;4994358;28;20031;-69
2022/01/21 13:17:00;;;;;;;27.17;3.65;;;;;;;;;;4974099;28;20046;-68
2022/01/21 13:19:26;;;;;;;15.65;3.05;;;;;;;;;;4974676;28;20037;-68
2022/01/21 13:21:52;;;;;;;20.17;3.20;;;;;;;;;;4984484;28;20030;-68
2022/01/21 13:24:30;;;;;;;23.15;3.90;;;;;;;;;;4979442;28;20045;-69
2022/01/21 13:26:56;;;;;;;22.58;2.90;;;;;;;;;;4971352;28;20061;-68
2022/01/21 13:29:48;;;;;;;21.23;2.72;;;;;;;;;;4982360;28;20023;-68
2022/01/21 13:32:14;;;;;;;16.63;3.80;;;;;;;;;;4982262;28;20061;-69
2022/01/21 13:34:40;;;;;;;22.17;3.70;;;;;;;;;;4981758;28;20455;-69
2022/01/21 13:37:08;;;;;;;22.20;4.57;;;;;;;;;;4982142;28;20038;-69
2022/01/21 13:39:39;;;;;;;23.73;3.50;;;;;;;;;;4969973;28;20117;-69
2022/01/21 13:42:14;;;;;;;27.65;4.63;;;;;;;;;;4970440;28;20027;-69
2022/01/21 13:44:42;;;;;;;18.70;3.13;;;;;;;;;;4977647;28;20041;-68
2022/01/21 13:47:27;;;;;;;21.92;5.00;;;;;;;;;;4978443;28;20026;-68
2022/01/21 13:49:54;;;;;;;34.78;3.47;;;;;;;;;;4977856;28;20035;-67
2022/01/21 13:52:20;;;;;;;22.15;3.17;;;;;;;;;;5000488;28;20037;-69
2022/01/21 13:54:47;;;;;;;19.02;3.15;;;;;;;;;;4997981;28;20042;-69
2022/01/21 13:57:13;;;;;;;24.02;2.72;;;;;;;;;;4970817;28;20079;-69
2022/01/21 13:59:47;;;;;;;29.45;6.55;;;;;;;;;;4971537;28;20097;-69
2022/01/21 14:02:14;;;;;;;31.30;11.05;;;;;;;;;;4983350;28;20088;-68
2022/01/21 14:04:41;;;;;;;16.38;5.60;;;;;;;;;;4968990;28;20061;-69
2022/01/21 14:07:25;;;;;;;14.93;2.63;;;;;;;;;;4969843;28;20345;-68
2022/01/21 14:09:51;;;;;;;18.75;3.05;;;;;;;;;;4979277;28;20458;-69
2022/01/21 14:12:18;;;;;;;24.27;3.53;;;;;;;;;;4981478;28;20101;-68
2022/01/21 14:14:46;;;;;;;20.95;3.03;;;;;;;;;;4985902;28;20035;-69
2022/01/21 14:17:13;;;;;;;22.23;3.20;;;;;;;;;;4989023;28;20031;-69
2022/01/21 14:19:40;;;;;;;16.30;2.70;;;;;;;;;;4978717;28;20061;-70
2022/01/21 14:22:25;;;;;;;14.80;2.63;;;;;;;;;;4986582;28;20443;-69
2022/01/21 14:24:52;;;;;;;20.17;4.30;;;;;;;;;;4999867;28;20033;-68
2022/01/21 14:27:30;;;;;;;22.98;3.55;;;;;;;;;;4989043;28;20543;-69
2022/01/21 14:30:00;;;;;;;19.88;3.33;;;;;;;;;;4991939;28;20113;-69
2022/01/21 14:32:33;;;;;;;25.67;4.65;;;;;;;;;;5010191;28;20502;-68
2022/01/21 14:35:27;;;;;;;17.52;2.80;;;;;;;;;;4996799;28;20034;-69
2022/01/21 14:38:04;;;;;;;15.98;3.13;;;;;;;;;;4981030;28;20039;-68
2022/01/21 14:40:31;;;;;;;22.02;3.75;;;;;;;;;;4971084;28;20057;-69
2022/01/21 14:43:22;;;;;;;23.10;2.95;;;;;;;;;;4987116;28;20137;-69
2022/01/21 14:45:58;;;;;;;23.70;4.55;;;;;;;;;;4970877;28;20113;-69
2022/01/21 14:48:26;;;;;;;19.02;3.90;;;;;;;;;;4970506;28;20109;-70
2022/01/21 14:50:54;;;;;;;19.13;3.17;;;;;;;;;;4970287;28;20532;-68
2022/01/21 14:53:20;;;;;;;25.55;3.85;;;;;;;;;;4971611;28;20062;-68
2022/01/21 14:55:49;;;;;;;23.73;4.18;;;;;;;;;;4970686;28;20046;-70
2022/01/21 14:58:17;;;;;;;22.90;4.93;;;;;;;;;;4984230;28;20026;-69
2022/01/21 15:00:48;;;;;;;23.17;3.35;;;;;;;;;;4984464;28;20052;-68
2022/01/21 15:03:19;;;;;;;24.92;3.97;;;;;;;;;;4982414;28;20129;-68
2022/01/21 15:05:46;;;;;;;19.45;3.50;;;;;;;;;;4977877;28;20089;-68
2022/01/21 15:08:18;;;;;;;26.50;4.90;;;;;;;;;;4978196;28;20035;-69
2022/01/21 15:10:45;;;;;;;23.48;4.20;;;;;;;;;;4986300;28;20050;-69
2022/01/21 15:16:08;;;;;;;33.90;5.22;;;;;;;;;;4989399;28;20118;-68
2022/01/21 15:18:34;;;;;;;25.92;3.75;;;;;;;;;;4989089;28;20040;-69
2022/01/21 15:21:00;;;;;;;34.88;5.13;;;;;;;;;;4987952;28;20030;-69
2022/01/21 15:23:27;;;;;;;23.00;4.18;;;;;;;;;;4975248;28;20026;-68
2022/01/21 15:25:53;;;;;;;20.75;3.55;;;;;;;;;;4996867;28;20434;-69
2022/01/21 15:28:20;;;;;;;24.73;5.07;;;;;;;;;;4988760;28;20054;-69
2022/01/21 15:30:46;;;;;;;27.23;3.83;;;;;;;;;;4987732;28;20035;-68
2022/01/21 15:33:12;;;;;;;30.95;4.72;;;;;;;;;;4986269;28;20036;-68
2022/01/21 15:35:38;;;;;;;23.65;4.00;;;;;;;;;;4985722;28;20035;-69